sensor_id;sensor_type;location;lat;lon;timestamp;temperature;humidity
17425;DHT22;8830;50.978;5.058;2023-06-14T00:01:16;21.50;91.80
17425;DHT22;8830;50.978;5.058;2023-06-14T00:03:45;21.40;92.30
17425;DHT22;8830;50.978;5.058;2023-06-14T00:06:14;21.30;92.50
17425;DHT22;8830;50.978;5.058;2023-06-14T00:08:41;21.30;92.70
17425;DHT22;8830;50.978;5.058;2023-06-14T00:11:08;21.30;92.70
17425;DHT22;8830;50.978;5.058;2023-06-14T00:13:35;21.30;92.90
17425;DHT22;8830;50.978;5.058;2023-06-14T00:16:04;21.30;92.60
17425;DHT22;8830;50.978;5.058;2023-06-14T00:18:31;21.30;93.50
17425;DHT22;8830;50.978;5.058;2023-06-14T00:20:58;21.20;93.20
17425;DHT22;8830;50.978;5.058;2023-06-14T00:23:25;21.20;93.40
17425;DHT22;8830;50.978;5.058;2023-06-14T00:25:52;21.20;93.70
17425;DHT22;8830;50.978;5.058;2023-06-14T00:28:20;21.20;94.00
17425;DHT22;8830;50.978;5.058;2023-06-14T00:30:47;21.20;93.40
17425;DHT22;8830;50.978;5.058;2023-06-14T00:35:43;21.00;93.70
17425;DHT22;8830;50.978;5.058;2023-06-14T00:38:10;21.10;94.20
17425;DHT22;8830;50.978;5.058;2023-06-14T00:40:37;20.80;94.20
17425;DHT22;8830;50.978;5.058;2023-06-14T00:43:04;21.10;94.00
17425;DHT22;8830;50.978;5.058;2023-06-14T00:50:30;20.90;94.50
17425;DHT22;8830;50.978;5.058;2023-06-14T00:55:26;20.90;94.80
17425;DHT22;8830;50.978;5.058;2023-06-14T00:57:54;20.80;95.30
17425;DHT22;8830;50.978;5.058;2023-06-14T01:02:49;20.80;95.70
17425;DHT22;8830;50.978;5.058;2023-06-14T01:05:16;20.80;95.90
17425;DHT22;8830;50.978;5.058;2023-06-14T01:07:55;20.70;96.10
17425;DHT22;8830;50.978;5.058;2023-06-14T01:10:37;20.60;96.40
17425;DHT22;8830;50.978;5.058;2023-06-14T01:13:11;20.50;96.60
17425;DHT22;8830;50.978;5.058;2023-06-14T01:15:41;20.30;97.30
17425;DHT22;8830;50.978;5.058;2023-06-14T01:18:09;19.20;97.40
17425;DHT22;8830;50.978;5.058;2023-06-14T01:20:43;20.20;98.00
17425;DHT22;8830;50.978;5.058;2023-06-14T01:23:18;20.20;97.90
17425;DHT22;8830;50.978;5.058;2023-06-14T01:25:45;20.20;98.80
17425;DHT22;8830;50.978;5.058;2023-06-14T01:28:13;20.10;99.20
17425;DHT22;8830;50.978;5.058;2023-06-14T01:30:44;20.10;99.20
17425;DHT22;8830;50.978;5.058;2023-06-14T01:33:14;19.90;99.70
17425;DHT22;8830;50.978;5.058;2023-06-14T01:35:43;19.90;99.60
17425;DHT22;8830;50.978;5.058;2023-06-14T01:40:39;20.00;99.90
17425;DHT22;8830;50.978;5.058;2023-06-14T01:43:07;20.00;99.90
17425;DHT22;8830;50.978;5.058;2023-06-14T01:45:35;19.90;99.90
17425;DHT22;8830;50.978;5.058;2023-06-14T01:50:31;19.70;99.90
17425;DHT22;8830;50.978;5.058;2023-06-14T01:52:58;19.70;99.90
17425;DHT22;8830;50.978;5.058;2023-06-14T02:00:22;19.70;99.90
17425;DHT22;8830;50.978;5.058;2023-06-14T02:02:49;19.70;99.90
17425;DHT22;8830;50.978;5.058;2023-06-14T02:05:16;19.60;99.90
17425;DHT22;8830;50.978;5.058;2023-06-14T02:07:44;19.60;99.90
17425;DHT22;8830;50.978;5.058;2023-06-14T02:10:13;19.80;99.90
17425;DHT22;8830;50.978;5.058;2023-06-14T02:12:41;19.60;99.90
17425;DHT22;8830;50.978;5.058;2023-06-14T02:15:10;19.60;99.90
17425;DHT22;8830;50.978;5.058;2023-06-14T02:17:42;19.50;99.90
17425;DHT22;8830;50.978;5.058;2023-06-14T02:20:10;19.40;99.90
17425;DHT22;8830;50.978;5.058;2023-06-14T02:22:38;18.80;99.90
17425;DHT22;8830;50.978;5.058;2023-06-14T02:25:05;19.40;99.90
17425;DHT22;8830;50.978;5.058;2023-06-14T02:30:00;19.40;99.90
17425;DHT22;8830;50.978;5.058;2023-06-14T02:34:57;19.20;99.90
17425;DHT22;8830;50.978;5.058;2023-06-14T02:37:24;19.20;99.90
17425;DHT22;8830;50.978;5.058;2023-06-14T02:39:51;19.20;99.90
17425;DHT22;8830;50.978;5.058;2023-06-14T02:44:46;19.20;99.90
17425;DHT22;8830;50.978;5.058;2023-06-14T02:47:16;19.20;99.90
17425;DHT22;8830;50.978;5.058;2023-06-14T02:49:45;19.10;99.90
17425;DHT22;8830;50.978;5.058;2023-06-14T02:57:08;19.20;99.90
17425;DHT22;8830;50.978;5.058;2023-06-14T02:59:36;19.20;99.90
17425;DHT22;8830;50.978;5.058;2023-06-14T03:02:03;19.10;99.90
17425;DHT22;8830;50.978;5.058;2023-06-14T03:04:30;19.10;99.90
17425;DHT22;8830;50.978;5.058;2023-06-14T03:07:01;19.00;99.90
17425;DHT22;8830;50.978;5.058;2023-06-14T03:09:35;19.10;99.90
17425;DHT22;8830;50.978;5.058;2023-06-14T03:12:03;19.10;99.90
17425;DHT22;8830;50.978;5.058;2023-06-14T03:14:32;19.10;99.90
17425;DHT22;8830;50.978;5.058;2023-06-14T03:19:28;18.90;99.90
17425;DHT22;8830;50.978;5.058;2023-06-14T03:21:55;19.00;99.90
17425;DHT22;8830;50.978;5.058;2023-06-14T03:24:24;19.00;99.90
17425;DHT22;8830;50.978;5.058;2023-06-14T03:26:53;19.00;99.90
17425;DHT22;8830;50.978;5.058;2023-06-14T03:29:20;19.00;99.90
17425;DHT22;8830;50.978;5.058;2023-06-14T03:32:01;18.90;99.90
17425;DHT22;8830;50.978;5.058;2023-06-14T03:34:29;17.40;99.90
17425;DHT22;8830;50.978;5.058;2023-06-14T03:36:56;19.00;99.90
17425;DHT22;8830;50.978;5.058;2023-06-14T03:41:52;19.00;99.90
17425;DHT22;8830;50.978;5.058;2023-06-14T03:44:19;19.00;99.90
17425;DHT22;8830;50.978;5.058;2023-06-14T03:49:14;18.90;99.90
17425;DHT22;8830;50.978;5.058;2023-06-14T04:01:33;18.70;99.90
17425;DHT22;8830;50.978;5.058;2023-06-14T04:28:49;19.50;99.90
17425;DHT22;8830;50.978;5.058;2023-06-14T04:31:18;19.50;99.90
17425;DHT22;8830;50.978;5.058;2023-06-14T04:33:50;19.70;99.90
17425;DHT22;8830;50.978;5.058;2023-06-14T04:36:19;19.70;99.90
17425;DHT22;8830;50.978;5.058;2023-06-14T04:38:46;19.70;99.90
17425;DHT22;8830;50.978;5.058;2023-06-14T04:43:43;20.10;99.90
17425;DHT22;8830;50.978;5.058;2023-06-14T04:51:12;23.30;99.90
17425;DHT22;8830;50.978;5.058;2023-06-14T04:53:41;24.10;99.90
17425;DHT22;8830;50.978;5.058;2023-06-14T04:56:08;24.70;99.90
17425;DHT22;8830;50.978;5.058;2023-06-14T04:58:35;25.20;99.90
17425;DHT22;8830;50.978;5.058;2023-06-14T05:01:04;25.70;99.90
17425;DHT22;8830;50.978;5.058;2023-06-14T05:03:31;25.70;99.90
17425;DHT22;8830;50.978;5.058;2023-06-14T05:08:29;26.50;98.80
17425;DHT22;8830;50.978;5.058;2023-06-14T05:10:56;26.40;97.30
17425;DHT22;8830;50.978;5.058;2023-06-14T05:13:23;26.30;97.80
17425;DHT22;8830;50.978;5.058;2023-06-14T05:15:54;26.30;97.10
17425;DHT22;8830;50.978;5.058;2023-06-14T05:18:22;25.90;97.60
17425;DHT22;8830;50.978;5.058;2023-06-14T05:20:50;25.50;97.60
17425;DHT22;8830;50.978;5.058;2023-06-14T05:30:42;27.10;95.70
17425;DHT22;8830;50.978;5.058;2023-06-14T05:33:09;27.30;95.70
17425;DHT22;8830;50.978;5.058;2023-06-14T05:35:36;27.20;95.70
17425;DHT22;8830;50.978;5.058;2023-06-14T05:43:00;28.20;94.80
17425;DHT22;8830;50.978;5.058;2023-06-14T05:47:54;28.70;94.00
17425;DHT22;8830;50.978;5.058;2023-06-14T05:50:21;28.70;91.80
17425;DHT22;8830;50.978;5.058;2023-06-14T05:52:49;28.80;92.50
17425;DHT22;8830;50.978;5.058;2023-06-14T05:55:17;28.80;92.70
17425;DHT22;8830;50.978;5.058;2023-06-14T06:00:15;29.80;90.20
17425;DHT22;8830;50.978;5.058;2023-06-14T06:02:43;29.20;91.40
17425;DHT22;8830;50.978;5.058;2023-06-14T06:07:38;29.90;90.70
17425;DHT22;8830;50.978;5.058;2023-06-14T06:10:08;29.70;90.30
17425;DHT22;8830;50.978;5.058;2023-06-14T06:12:35;29.60;90.00
17425;DHT22;8830;50.978;5.058;2023-06-14T06:17:32;29.10;89.20
17425;DHT22;8830;50.978;5.058;2023-06-14T06:27:21;29.30;89.90
17425;DHT22;8830;50.978;5.058;2023-06-14T06:32:18;30.80;87.40
17425;DHT22;8830;50.978;5.058;2023-06-14T06:34:47;30.90;86.00
17425;DHT22;8830;50.978;5.058;2023-06-14T06:37:14;30.50;86.00
17425;DHT22;8830;50.978;5.058;2023-06-14T06:42:10;31.80;82.50
17425;DHT22;8830;50.978;5.058;2023-06-14T06:44:37;31.80;81.70
17425;DHT22;8830;50.978;5.058;2023-06-14T06:47:05;31.50;82.60
17425;DHT22;8830;50.978;5.058;2023-06-14T06:52:01;31.40;79.10
17425;DHT22;8830;50.978;5.058;2023-06-14T06:54:29;31.10;82.70
17425;DHT22;8830;50.978;5.058;2023-06-14T06:56:56;31.30;78.70
17425;DHT22;8830;50.978;5.058;2023-06-14T07:01:50;31.70;79.50
17425;DHT22;8830;50.978;5.058;2023-06-14T07:04:18;31.60;78.80
17425;DHT22;8830;50.978;5.058;2023-06-14T07:06:46;31.30;79.00
17425;DHT22;8830;50.978;5.058;2023-06-14T07:09:13;31.40;82.60
17425;DHT22;8830;50.978;5.058;2023-06-14T07:14:09;32.70;78.40
17425;DHT22;8830;50.978;5.058;2023-06-14T07:16:37;32.70;79.70
17425;DHT22;8830;50.978;5.058;2023-06-14T07:19:04;33.00;79.60
17425;DHT22;8830;50.978;5.058;2023-06-14T07:21:32;32.90;79.70
17425;DHT22;8830;50.978;5.058;2023-06-14T07:24:00;33.20;77.20
17425;DHT22;8830;50.978;5.058;2023-06-14T07:26:27;32.60;75.30
17425;DHT22;8830;50.978;5.058;2023-06-14T07:28:54;31.80;77.80
17425;DHT22;8830;50.978;5.058;2023-06-14T07:31:22;31.20;77.50
17425;DHT22;8830;50.978;5.058;2023-06-14T07:33:49;31.00;77.40
17425;DHT22;8830;50.978;5.058;2023-06-14T07:36:16;31.00;77.10
17425;DHT22;8830;50.978;5.058;2023-06-14T07:43:40;31.80;77.00
17425;DHT22;8830;50.978;5.058;2023-06-14T07:46:07;31.80;78.30
17425;DHT22;8830;50.978;5.058;2023-06-14T07:48:35;31.70;76.20
17425;DHT22;8830;50.978;5.058;2023-06-14T07:51:02;31.80;75.70
17425;DHT22;8830;50.978;5.058;2023-06-14T07:53:29;32.10;75.20
17425;DHT22;8830;50.978;5.058;2023-06-14T07:55:57;31.90;75.40
17425;DHT22;8830;50.978;5.058;2023-06-14T07:58:25;32.30;74.10
17425;DHT22;8830;50.978;5.058;2023-06-14T08:00:53;32.30;74.50
17425;DHT22;8830;50.978;5.058;2023-06-14T08:03:20;32.10;74.70
17425;DHT22;8830;50.978;5.058;2023-06-14T08:08:16;32.30;76.10
17425;DHT22;8830;50.978;5.058;2023-06-14T08:10:43;32.30;77.30
17425;DHT22;8830;50.978;5.058;2023-06-14T08:13:11;32.90;75.50
17425;DHT22;8830;50.978;5.058;2023-06-14T08:18:07;33.10;71.60
17425;DHT22;8830;50.978;5.058;2023-06-14T08:20:34;33.30;75.60
17425;DHT22;8830;50.978;5.058;2023-06-14T08:23:03;33.40;72.30
17425;DHT22;8830;50.978;5.058;2023-06-14T08:25:30;32.30;70.80
17425;DHT22;8830;50.978;5.058;2023-06-14T08:27:59;31.90;73.80
17425;DHT22;8830;50.978;5.058;2023-06-14T08:30:26;32.00;72.90
17425;DHT22;8830;50.978;5.058;2023-06-14T08:35:22;32.80;70.50
17425;DHT22;8830;50.978;5.058;2023-06-14T08:37:50;32.90;70.90
17425;DHT22;8830;50.978;5.058;2023-06-14T08:40:19;33.00;71.60
17425;DHT22;8830;50.978;5.058;2023-06-14T08:42:51;32.70;70.80
17425;DHT22;8830;50.978;5.058;2023-06-14T08:45:19;32.70;71.60
17425;DHT22;8830;50.978;5.058;2023-06-14T08:50:21;31.80;71.80
17425;DHT22;8830;50.978;5.058;2023-06-14T08:52:53;33.00;70.60
17425;DHT22;8830;50.978;5.058;2023-06-14T08:55:23;33.10;69.20
17425;DHT22;8830;50.978;5.058;2023-06-14T08:57:54;32.60;69.10
17425;DHT22;8830;50.978;5.058;2023-06-14T09:00:24;32.40;68.30
17425;DHT22;8830;50.978;5.058;2023-06-14T09:02:51;32.40;69.80
17425;DHT22;8830;50.978;5.058;2023-06-14T09:05:23;31.90;69.80
17425;DHT22;8830;50.978;5.058;2023-06-14T09:10:21;31.40;68.30
17425;DHT22;8830;50.978;5.058;2023-06-14T09:12:48;31.00;67.70
17425;DHT22;8830;50.978;5.058;2023-06-14T09:17:45;30.90;69.90
17425;DHT22;8830;50.978;5.058;2023-06-14T09:20:12;30.90;70.40
17425;DHT22;8830;50.978;5.058;2023-06-14T09:22:45;31.20;66.50
17425;DHT22;8830;50.978;5.058;2023-06-14T09:25:13;31.10;67.00
17425;DHT22;8830;50.978;5.058;2023-06-14T09:27:41;30.60;68.70
17425;DHT22;8830;50.978;5.058;2023-06-14T09:30:10;30.20;68.90
17425;DHT22;8830;50.978;5.058;2023-06-14T09:32:37;30.30;70.00
17425;DHT22;8830;50.978;5.058;2023-06-14T09:35:06;30.30;70.70
17425;DHT22;8830;50.978;5.058;2023-06-14T09:37:34;30.20;70.20
17425;DHT22;8830;50.978;5.058;2023-06-14T09:40:05;30.00;67.10
17425;DHT22;8830;50.978;5.058;2023-06-14T09:42:33;28.50;68.40
17425;DHT22;8830;50.978;5.058;2023-06-14T09:45:02;28.50;70.20
17425;DHT22;8830;50.978;5.058;2023-06-14T09:47:30;28.50;70.30
17425;DHT22;8830;50.978;5.058;2023-06-14T09:57:27;27.40;68.80
17425;DHT22;8830;50.978;5.058;2023-06-14T09:59:59;27.40;69.20
17425;DHT22;8830;50.978;5.058;2023-06-14T10:02:35;26.80;68.40
17425;DHT22;8830;50.978;5.058;2023-06-14T10:05:06;26.80;68.60
17425;DHT22;8830;50.978;5.058;2023-06-14T10:07:38;26.90;69.20
17425;DHT22;8830;50.978;5.058;2023-06-14T10:10:07;26.90;69.50
17425;DHT22;8830;50.978;5.058;2023-06-14T10:12:36;27.10;70.00
17425;DHT22;8830;50.978;5.058;2023-06-14T10:15:04;27.00;67.70
17425;DHT22;8830;50.978;5.058;2023-06-14T10:17:38;27.30;70.10
17425;DHT22;8830;50.978;5.058;2023-06-14T10:20:21;27.40;70.70
17425;DHT22;8830;50.978;5.058;2023-06-14T10:22:56;27.40;70.90
17425;DHT22;8830;50.978;5.058;2023-06-14T10:25:28;27.50;70.00
17425;DHT22;8830;50.978;5.058;2023-06-14T10:28:18;27.40;69.90
17425;DHT22;8830;50.978;5.058;2023-06-14T10:31:08;27.20;69.10
17425;DHT22;8830;50.978;5.058;2023-06-14T10:33:36;27.20;70.00
17425;DHT22;8830;50.978;5.058;2023-06-14T10:36:27;27.30;70.50
17425;DHT22;8830;50.978;5.058;2023-06-14T10:39:00;27.40;69.70
17425;DHT22;8830;50.978;5.058;2023-06-14T10:41:28;27.20;69.10
17425;DHT22;8830;50.978;5.058;2023-06-14T10:44:41;27.40;71.90
17425;DHT22;8830;50.978;5.058;2023-06-14T10:47:10;27.50;69.20
17425;DHT22;8830;50.978;5.058;2023-06-14T10:49:40;27.50;69.60
17425;DHT22;8830;50.978;5.058;2023-06-14T10:52:12;27.80;70.90
17425;DHT22;8830;50.978;5.058;2023-06-14T10:55:01;27.80;70.00
17425;DHT22;8830;50.978;5.058;2023-06-14T10:57:30;27.70;68.10
17425;DHT22;8830;50.978;5.058;2023-06-14T11:00:00;27.60;68.20
17425;DHT22;8830;50.978;5.058;2023-06-14T11:05:49;27.50;67.30
17425;DHT22;8830;50.978;5.058;2023-06-14T11:11:38;27.40;65.40
17425;DHT22;8830;50.978;5.058;2023-06-14T11:14:07;27.40;66.00
17425;DHT22;8830;50.978;5.058;2023-06-14T11:16:36;27.50;65.30
17425;DHT22;8830;50.978;5.058;2023-06-14T11:19:05;27.40;64.60
17425;DHT22;8830;50.978;5.058;2023-06-14T11:21:34;27.40;67.80
17425;DHT22;8830;50.978;5.058;2023-06-14T11:24:10;27.50;65.90
17425;DHT22;8830;50.978;5.058;2023-06-14T11:26:39;27.10;66.80
17425;DHT22;8830;50.978;5.058;2023-06-14T11:29:07;27.30;67.80
17425;DHT22;8830;50.978;5.058;2023-06-14T11:31:35;27.30;67.00
17425;DHT22;8830;50.978;5.058;2023-06-14T11:34:02;27.50;67.20
17425;DHT22;8830;50.978;5.058;2023-06-14T11:36:34;27.80;66.60
17425;DHT22;8830;50.978;5.058;2023-06-14T11:39:02;27.60;64.00
17425;DHT22;8830;50.978;5.058;2023-06-14T11:41:38;27.40;65.90
17425;DHT22;8830;50.978;5.058;2023-06-14T11:44:06;27.40;66.10
17425;DHT22;8830;50.978;5.058;2023-06-14T11:46:33;27.40;63.70
17425;DHT22;8830;50.978;5.058;2023-06-14T11:49:02;27.20;63.60
17425;DHT22;8830;50.978;5.058;2023-06-14T11:51:30;27.30;65.00
17425;DHT22;8830;50.978;5.058;2023-06-14T11:53:58;27.40;63.40
17425;DHT22;8830;50.978;5.058;2023-06-14T11:56:26;27.40;63.60
17425;DHT22;8830;50.978;5.058;2023-06-14T11:58:53;27.50;63.10
17425;DHT22;8830;50.978;5.058;2023-06-14T12:01:23;27.50;63.90
17425;DHT22;8830;50.978;5.058;2023-06-14T12:03:53;27.60;63.50
17425;DHT22;8830;50.978;5.058;2023-06-14T12:06:27;27.60;60.90
17425;DHT22;8830;50.978;5.058;2023-06-14T12:08:58;27.50;61.40
17425;DHT22;8830;50.978;5.058;2023-06-14T12:11:32;27.60;61.50
17425;DHT22;8830;50.978;5.058;2023-06-14T12:14:03;27.70;63.20
17425;DHT22;8830;50.978;5.058;2023-06-14T12:16:32;27.50;63.70
17425;DHT22;8830;50.978;5.058;2023-06-14T12:19:13;27.50;61.10
17425;DHT22;8830;50.978;5.058;2023-06-14T12:21:42;27.40;62.10
17425;DHT22;8830;50.978;5.058;2023-06-14T12:24:11;27.00;59.60
17425;DHT22;8830;50.978;5.058;2023-06-14T12:29:07;27.40;64.30
17425;DHT22;8830;50.978;5.058;2023-06-14T12:31:34;27.40;63.30
17425;DHT22;8830;50.978;5.058;2023-06-14T12:34:01;27.60;61.40
17425;DHT22;8830;50.978;5.058;2023-06-14T12:41:25;27.50;61.60
17425;DHT22;8830;50.978;5.058;2023-06-14T12:43:53;27.50;62.50
17425;DHT22;8830;50.978;5.058;2023-06-14T12:46:20;27.30;60.80
17425;DHT22;8830;50.978;5.058;2023-06-14T12:48:48;27.20;60.60
17425;DHT22;8830;50.978;5.058;2023-06-14T12:51:15;27.20;62.10
17425;DHT22;8830;50.978;5.058;2023-06-14T12:53:42;27.50;61.40
17425;DHT22;8830;50.978;5.058;2023-06-14T12:56:11;27.70;62.70
17425;DHT22;8830;50.978;5.058;2023-06-14T13:01:05;27.30;61.60
17425;DHT22;8830;50.978;5.058;2023-06-14T13:03:32;27.40;63.10
17425;DHT22;8830;50.978;5.058;2023-06-14T13:06:00;27.50;63.40
17425;DHT22;8830;50.978;5.058;2023-06-14T13:08:27;27.40;62.10
17425;DHT22;8830;50.978;5.058;2023-06-14T13:10:55;27.60;62.30
17425;DHT22;8830;50.978;5.058;2023-06-14T13:18:20;27.40;62.30
17425;DHT22;8830;50.978;5.058;2023-06-14T13:20:47;27.20;62.30
17425;DHT22;8830;50.978;5.058;2023-06-14T13:23:15;27.10;62.30
17425;DHT22;8830;50.978;5.058;2023-06-14T13:25:42;27.10;63.40
17425;DHT22;8830;50.978;5.058;2023-06-14T13:28:11;27.10;62.40
17425;DHT22;8830;50.978;5.058;2023-06-14T13:35:34;27.40;64.10
17425;DHT22;8830;50.978;5.058;2023-06-14T13:38:01;27.40;64.20
17425;DHT22;8830;50.978;5.058;2023-06-14T13:40:29;27.60;65.50
17425;DHT22;8830;50.978;5.058;2023-06-14T13:42:56;27.70;62.90
17425;DHT22;8830;50.978;5.058;2023-06-14T13:45:23;27.60;64.30
17425;DHT22;8830;50.978;5.058;2023-06-14T13:47:52;27.50;63.20
17425;DHT22;8830;50.978;5.058;2023-06-14T13:50:20;27.40;63.50
17425;DHT22;8830;50.978;5.058;2023-06-14T13:52:47;27.30;64.40
17425;DHT22;8830;50.978;5.058;2023-06-14T13:57:41;27.30;63.10
17425;DHT22;8830;50.978;5.058;2023-06-14T14:00:10;27.40;65.60
17425;DHT22;8830;50.978;5.058;2023-06-14T14:02:37;27.40;65.30
17425;DHT22;8830;50.978;5.058;2023-06-14T14:05:08;27.50;65.90
17425;DHT22;8830;50.978;5.058;2023-06-14T14:07:35;27.40;67.00
17425;DHT22;8830;50.978;5.058;2023-06-14T14:10:04;27.30;66.70
17425;DHT22;8830;50.978;5.058;2023-06-14T14:12:31;27.30;67.10
17425;DHT22;8830;50.978;5.058;2023-06-14T14:14:58;27.10;67.20
17425;DHT22;8830;50.978;5.058;2023-06-14T14:17:25;27.20;65.60
17425;DHT22;8830;50.978;5.058;2023-06-14T14:19:52;27.10;66.70
17425;DHT22;8830;50.978;5.058;2023-06-14T14:22:21;27.10;64.50
17425;DHT22;8830;50.978;5.058;2023-06-14T14:24:48;27.00;63.90
17425;DHT22;8830;50.978;5.058;2023-06-14T14:27:15;27.00;65.60
17425;DHT22;8830;50.978;5.058;2023-06-14T14:29:43;27.10;65.70
17425;DHT22;8830;50.978;5.058;2023-06-14T14:32:11;27.20;66.60
17425;DHT22;8830;50.978;5.058;2023-06-14T14:34:40;27.30;65.50
17425;DHT22;8830;50.978;5.058;2023-06-14T14:37:08;27.30;65.20
17425;DHT22;8830;50.978;5.058;2023-06-14T14:39:37;27.20;64.90
17425;DHT22;8830;50.978;5.058;2023-06-14T14:42:04;27.10;64.80
17425;DHT22;8830;50.978;5.058;2023-06-14T14:44:33;27.10;65.10
17425;DHT22;8830;50.978;5.058;2023-06-14T14:47:00;27.00;64.50
17425;DHT22;8830;50.978;5.058;2023-06-14T14:51:56;27.20;64.40
17425;DHT22;8830;50.978;5.058;2023-06-14T14:54:23;27.20;65.60
17425;DHT22;8830;50.978;5.058;2023-06-14T14:56:52;26.80;63.90
17425;DHT22;8830;50.978;5.058;2023-06-14T14:59:19;26.80;63.60
17425;DHT22;8830;50.978;5.058;2023-06-14T15:01:47;26.80;62.30
17425;DHT22;8830;50.978;5.058;2023-06-14T15:04:14;26.90;64.70
17425;DHT22;8830;50.978;5.058;2023-06-14T15:06:41;26.90;63.20
17425;DHT22;8830;50.978;5.058;2023-06-14T15:11:37;26.80;63.60
17425;DHT22;8830;50.978;5.058;2023-06-14T15:14:05;26.70;62.60
17425;DHT22;8830;50.978;5.058;2023-06-14T15:16:32;26.80;62.40
17425;DHT22;8830;50.978;5.058;2023-06-14T15:19:02;27.10;60.50
17425;DHT22;8830;50.978;5.058;2023-06-14T15:21:29;27.00;60.90
17425;DHT22;8830;50.978;5.058;2023-06-14T15:23:56;27.00;61.90
17425;DHT22;8830;50.978;5.058;2023-06-14T15:26:23;27.00;64.00
17425;DHT22;8830;50.978;5.058;2023-06-14T15:31:19;27.00;60.90
17425;DHT22;8830;50.978;5.058;2023-06-14T15:33:49;26.90;64.40
17425;DHT22;8830;50.978;5.058;2023-06-14T15:41:11;27.00;65.20
17425;DHT22;8830;50.978;5.058;2023-06-14T15:43:37;27.00;65.30
17425;DHT22;8830;50.978;5.058;2023-06-14T15:46:05;27.00;65.40
17425;DHT22;8830;50.978;5.058;2023-06-14T15:48:33;26.80;63.20
17425;DHT22;8830;50.978;5.058;2023-06-14T15:51:00;26.80;62.80
17425;DHT22;8830;50.978;5.058;2023-06-14T15:53:27;26.80;63.30
17425;DHT22;8830;50.978;5.058;2023-06-14T15:55:54;25.50;62.10
17425;DHT22;8830;50.978;5.058;2023-06-14T16:00:49;26.80;63.30
17425;DHT22;8830;50.978;5.058;2023-06-14T16:03:16;26.70;62.90
17425;DHT22;8830;50.978;5.058;2023-06-14T16:10:40;26.60;63.60
17425;DHT22;8830;50.978;5.058;2023-06-14T16:15:35;26.60;65.20
17425;DHT22;8830;50.978;5.058;2023-06-14T16:18:04;26.70;64.10
17425;DHT22;8830;50.978;5.058;2023-06-14T16:20:32;26.60;64.30
17425;DHT22;8830;50.978;5.058;2023-06-14T16:25:28;26.70;64.90
17425;DHT22;8830;50.978;5.058;2023-06-14T16:30:23;26.50;63.50
17425;DHT22;8830;50.978;5.058;2023-06-14T16:32:50;26.50;63.10
17425;DHT22;8830;50.978;5.058;2023-06-14T16:35:17;26.60;64.80
17425;DHT22;8830;50.978;5.058;2023-06-14T16:37:44;26.60;64.40
17425;DHT22;8830;50.978;5.058;2023-06-14T16:42:41;26.50;61.10
17425;DHT22;8830;50.978;5.058;2023-06-14T16:45:09;26.30;64.00
17425;DHT22;8830;50.978;5.058;2023-06-14T16:59:55;26.30;64.90
17425;DHT22;8830;50.978;5.058;2023-06-14T17:04:51;26.20;65.60
17425;DHT22;8830;50.978;5.058;2023-06-14T17:09:45;26.30;67.60
17425;DHT22;8830;50.978;5.058;2023-06-14T17:12:13;26.40;66.40
17425;DHT22;8830;50.978;5.058;2023-06-14T17:22:05;26.20;65.60
17425;DHT22;8830;50.978;5.058;2023-06-14T17:24:33;26.10;65.80
17425;DHT22;8830;50.978;5.058;2023-06-14T17:27:00;26.10;65.70
17425;DHT22;8830;50.978;5.058;2023-06-14T17:29:27;26.10;66.30
17425;DHT22;8830;50.978;5.058;2023-06-14T17:34:24;26.10;67.90
17425;DHT22;8830;50.978;5.058;2023-06-14T17:36:51;26.00;67.90
17425;DHT22;8830;50.978;5.058;2023-06-14T17:39:19;26.00;68.30
17425;DHT22;8830;50.978;5.058;2023-06-14T17:41:46;26.00;68.50
17425;DHT22;8830;50.978;5.058;2023-06-14T17:44:13;26.00;67.80
17425;DHT22;8830;50.978;5.058;2023-06-14T17:46:41;25.80;69.10
17425;DHT22;8830;50.978;5.058;2023-06-14T17:49:09;25.90;70.30
17425;DHT22;8830;50.978;5.058;2023-06-14T17:51:37;25.80;69.80
17425;DHT22;8830;50.978;5.058;2023-06-14T17:56:33;25.80;70.40
17425;DHT22;8830;50.978;5.058;2023-06-14T18:01:28;25.80;70.10
17425;DHT22;8830;50.978;5.058;2023-06-14T18:11:19;25.70;70.30
17425;DHT22;8830;50.978;5.058;2023-06-14T18:13:46;25.60;70.80
17425;DHT22;8830;50.978;5.058;2023-06-14T18:21:13;25.50;71.10
17425;DHT22;8830;50.978;5.058;2023-06-14T18:26:19;25.40;72.40
17425;DHT22;8830;50.978;5.058;2023-06-14T18:28:47;25.40;72.40
17425;DHT22;8830;50.978;5.058;2023-06-14T18:31:16;25.40;71.70
17425;DHT22;8830;50.978;5.058;2023-06-14T18:33:43;25.30;72.30
17425;DHT22;8830;50.978;5.058;2023-06-14T18:43:37;25.20;73.30
17425;DHT22;8830;50.978;5.058;2023-06-14T18:46:04;25.00;74.30
17425;DHT22;8830;50.978;5.058;2023-06-14T18:48:31;25.00;74.20
17425;DHT22;8830;50.978;5.058;2023-06-14T18:50:58;25.00;73.90
17425;DHT22;8830;50.978;5.058;2023-06-14T18:53:26;24.80;74.70
17425;DHT22;8830;50.978;5.058;2023-06-14T19:03:18;24.90;76.60
17425;DHT22;8830;50.978;5.058;2023-06-14T19:08:12;24.70;76.90
17425;DHT22;8830;50.978;5.058;2023-06-14T19:10:39;24.60;76.50
17425;DHT22;8830;50.978;5.058;2023-06-14T19:23:01;24.30;78.80
17425;DHT22;8830;50.978;5.058;2023-06-14T19:27:58;24.30;78.20
17425;DHT22;8830;50.978;5.058;2023-06-14T19:30:25;24.10;78.90
17425;DHT22;8830;50.978;5.058;2023-06-14T19:32:53;24.20;79.00
17425;DHT22;8830;50.978;5.058;2023-06-14T19:35:20;24.10;79.40
17425;DHT22;8830;50.978;5.058;2023-06-14T19:37:48;24.10;80.00
17425;DHT22;8830;50.978;5.058;2023-06-14T19:57:31;23.60;81.80
17425;DHT22;8830;50.978;5.058;2023-06-14T20:02:29;23.50;81.90
17425;DHT22;8830;50.978;5.058;2023-06-14T20:04:56;23.40;82.30
17425;DHT22;8830;50.978;5.058;2023-06-14T20:07:25;23.30;83.00
17425;DHT22;8830;50.978;5.058;2023-06-14T20:09:53;23.30;83.00
17425;DHT22;8830;50.978;5.058;2023-06-14T20:14:48;23.20;83.80
17425;DHT22;8830;50.978;5.058;2023-06-14T20:22:13;23.00;84.60
17425;DHT22;8830;50.978;5.058;2023-06-14T20:27:10;22.90;85.00
17425;DHT22;8830;50.978;5.058;2023-06-14T20:29:37;22.90;85.80
17425;DHT22;8830;50.978;5.058;2023-06-14T20:32:05;22.80;86.20
17425;DHT22;8830;50.978;5.058;2023-06-14T20:34:32;22.80;86.30
17425;DHT22;8830;50.978;5.058;2023-06-14T20:36:59;22.70;86.60
17425;DHT22;8830;50.978;5.058;2023-06-14T20:39:26;22.70;86.80
17425;DHT22;8830;50.978;5.058;2023-06-14T20:41:55;22.50;87.40
17425;DHT22;8830;50.978;5.058;2023-06-14T20:44:22;22.50;87.70
17425;DHT22;8830;50.978;5.058;2023-06-14T20:51:46;22.50;89.10
17425;DHT22;8830;50.978;5.058;2023-06-14T20:54:13;22.40;89.00
17425;DHT22;8830;50.978;5.058;2023-06-14T20:56:40;22.50;89.40
17425;DHT22;8830;50.978;5.058;2023-06-14T21:06:31;22.30;90.00
17425;DHT22;8830;50.978;5.058;2023-06-14T21:08:58;22.20;90.70
17425;DHT22;8830;50.978;5.058;2023-06-14T21:11:25;22.10;91.00
17425;DHT22;8830;50.978;5.058;2023-06-14T21:13:52;22.20;91.00
17425;DHT22;8830;50.978;5.058;2023-06-14T21:16:21;22.10;90.90
17425;DHT22;8830;50.978;5.058;2023-06-14T21:18:48;23.50;91.60
17425;DHT22;8830;50.978;5.058;2023-06-14T21:21:15;22.10;91.50
17425;DHT22;8830;50.978;5.058;2023-06-14T21:23:42;22.00;91.80
17425;DHT22;8830;50.978;5.058;2023-06-14T21:26:09;22.00;91.80